sensor_id;sensor_type;location;lat;lon;timestamp;pressure;altitude;pressure_sealevel;temperature;humidity
30873;BME280;17579;42.690;2.586;2022-12-07T00:01:24;96955.03;;;12.80;48.98
30873;BME280;17579;42.690;2.586;2022-12-07T00:03:52;96949.72;;;12.80;48.65
30873;BME280;17579;42.690;2.586;2022-12-07T00:06:19;96948.06;;;12.79;48.61
30873;BME280;17579;42.690;2.586;2022-12-07T00:08:46;96952.53;;;12.78;48.63
30873;BME280;17579;42.690;2.586;2022-12-07T00:11:18;96949.06;;;12.78;48.54
30873;BME280;17579;42.690;2.586;2022-12-07T00:13:44;96946.91;;;12.81;48.14
30873;BME280;17579;42.690;2.586;2022-12-07T00:16:14;96943.59;;;12.79;48.17
30873;BME280;17579;42.690;2.586;2022-12-07T00:18:40;96939.94;;;12.80;47.90
30873;BME280;17579;42.690;2.586;2022-12-07T00:21:12;96939.44;;;12.77;48.34
30873;BME280;17579;42.690;2.586;2022-12-07T00:23:40;96942.09;;;12.77;48.35
30873;BME280;17579;42.690;2.586;2022-12-07T00:26:11;96941.44;;;12.75;48.44
30873;BME280;17579;42.690;2.586;2022-12-07T00:28:38;96941.44;;;12.75;48.66
30873;BME280;17579;42.690;2.586;2022-12-07T00:31:09;96940.44;;;12.68;48.76
30873;BME280;17579;42.690;2.586;2022-12-07T00:33:36;96932.31;;;12.69;48.48
30873;BME280;17579;42.690;2.586;2022-12-07T00:36:05;96931.00;;;12.65;48.37
30873;BME280;17579;42.690;2.586;2022-12-07T00:38:33;96932.31;;;12.61;48.72
30873;BME280;17579;42.690;2.586;2022-12-07T00:41:00;96924.53;;;12.59;48.48
30873;BME280;17579;42.690;2.586;2022-12-07T00:43:26;96931.81;;;12.57;48.71
30873;BME280;17579;42.690;2.586;2022-12-07T00:45:53;96928.50;;;12.55;48.55
30873;BME280;17579;42.690;2.586;2022-12-07T00:48:19;96933.97;;;12.54;48.57
30873;BME280;17579;42.690;2.586;2022-12-07T00:50:44;96923.69;;;12.51;48.30
30873;BME280;17579;42.690;2.586;2022-12-07T00:53:10;96929.31;;;12.47;48.46
30873;BME280;17579;42.690;2.586;2022-12-07T00:55:36;96923.50;;;12.44;48.86
30873;BME280;17579;42.690;2.586;2022-12-07T00:58:02;96921.03;;;12.42;48.62
30873;BME280;17579;42.690;2.586;2022-12-07T01:00:28;96918.38;;;12.42;48.83
30873;BME280;17579;42.690;2.586;2022-12-07T01:02:53;96920.56;;;12.47;48.44
30873;BME280;17579;42.690;2.586;2022-12-07T01:05:19;96916.56;;;12.51;48.46
30873;BME280;17579;42.690;2.586;2022-12-07T01:07:45;96920.88;;;12.52;48.46
30873;BME280;17579;42.690;2.586;2022-12-07T01:10:12;96920.69;;;12.54;48.50
30873;BME280;17579;42.690;2.586;2022-12-07T01:12:38;96916.91;;;12.56;48.63
30873;BME280;17579;42.690;2.586;2022-12-07T01:15:04;96912.25;;;12.58;48.94
30873;BME280;17579;42.690;2.586;2022-12-07T01:17:31;96916.22;;;12.62;48.89
30873;BME280;17579;42.690;2.586;2022-12-07T01:19:56;96909.94;;;12.63;48.89
30873;BME280;17579;42.690;2.586;2022-12-07T01:22:22;96914.09;;;12.66;48.74
30873;BME280;17579;42.690;2.586;2022-12-07T01:24:47;96920.03;;;12.68;48.72
30873;BME280;17579;42.690;2.586;2022-12-07T01:27:13;96916.41;;;12.69;48.90
30873;BME280;17579;42.690;2.586;2022-12-07T01:29:39;96921.69;;;12.69;48.81
30873;BME280;17579;42.690;2.586;2022-12-07T01:32:05;96919.88;;;12.70;48.75
30873;BME280;17579;42.690;2.586;2022-12-07T01:34:30;96923.72;;;12.67;48.65
30873;BME280;17579;42.690;2.586;2022-12-07T01:36:56;96927.19;;;12.68;48.99
30873;BME280;17579;42.690;2.586;2022-12-07T01:39:23;96934.16;;;12.69;48.88
30873;BME280;17579;42.690;2.586;2022-12-07T01:41:49;96928.84;;;12.69;48.63
30873;BME280;17579;42.690;2.586;2022-12-07T01:44:26;96930.34;;;12.63;48.96
30873;BME280;17579;42.690;2.586;2022-12-07T01:47:09;96935.81;;;12.61;49.22
30873;BME280;17579;42.690;2.586;2022-12-07T01:49:47;96931.16;;;12.63;49.00
30873;BME280;17579;42.690;2.586;2022-12-07T01:52:20;96929.84;;;12.68;48.78
30873;BME280;17579;42.690;2.586;2022-12-07T01:54:47;96930.81;;;12.67;48.56
30873;BME280;17579;42.690;2.586;2022-12-07T01:57:15;96926.84;;;12.62;48.76
30873;BME280;17579;42.690;2.586;2022-12-07T01:59:44;96927.00;;;12.61;48.91
30873;BME280;17579;42.690;2.586;2022-12-07T02:02:26;96924.84;;;12.56;48.88
30873;BME280;17579;42.690;2.586;2022-12-07T02:04:54;96921.88;;;12.59;48.96
30873;BME280;17579;42.690;2.586;2022-12-07T02:07:21;96920.53;;;12.55;48.90
30873;BME280;17579;42.690;2.586;2022-12-07T02:09:48;96923.34;;;12.54;48.90
30873;BME280;17579;42.690;2.586;2022-12-07T02:12:14;96924.34;;;12.53;48.76
30873;BME280;17579;42.690;2.586;2022-12-07T02:14:40;96926.19;;;12.52;49.15
30873;BME280;17579;42.690;2.586;2022-12-07T02:17:22;96928.81;;;12.44;49.09
30873;BME280;17579;42.690;2.586;2022-12-07T02:26:15;96923.50;;;12.44;49.98
30873;BME280;17579;42.690;2.586;2022-12-07T02:29:08;96917.91;;;12.47;50.00
30873;BME280;17579;42.690;2.586;2022-12-07T02:31:36;96917.72;;;12.57;50.53
30873;BME280;17579;42.690;2.586;2022-12-07T02:34:09;96919.56;;;12.56;50.44
30873;BME280;17579;42.690;2.586;2022-12-07T02:36:46;96918.41;;;12.59;50.19
30873;BME280;17579;42.690;2.586;2022-12-07T02:39:21;96921.53;;;12.62;50.39
30873;BME280;17579;42.690;2.586;2022-12-07T02:41:56;96918.72;;;12.64;50.54
30873;BME280;17579;42.690;2.586;2022-12-07T02:44:26;96918.41;;;12.67;50.39
30873;BME280;17579;42.690;2.586;2022-12-07T02:47:03;96915.06;;;12.65;50.23
30873;BME280;17579;42.690;2.586;2022-12-07T02:49:30;96919.06;;;12.69;50.41
30873;BME280;17579;42.690;2.586;2022-12-07T02:51:57;96912.06;;;12.68;50.58
30873;BME280;17579;42.690;2.586;2022-12-07T02:54:22;96917.38;;;12.68;50.70
30873;BME280;17579;42.690;2.586;2022-12-07T03:00:09;96914.59;;;12.61;50.93
30873;BME280;17579;42.690;2.586;2022-12-07T03:02:50;96905.28;;;12.57;51.29
30873;BME280;17579;42.690;2.586;2022-12-07T03:05:43;96912.09;;;12.52;51.19
30873;BME280;17579;42.690;2.586;2022-12-07T03:08:30;96914.75;;;12.52;51.34
30873;BME280;17579;42.690;2.586;2022-12-07T03:11:08;96908.94;;;12.56;51.86
30873;BME280;17579;42.690;2.586;2022-12-07T03:16:49;96907.59;;;12.52;51.57
30873;BME280;17579;42.690;2.586;2022-12-07T03:19:20;96898.97;;;12.58;51.86
30873;BME280;17579;42.690;2.586;2022-12-07T03:21:53;96901.31;;;12.53;51.67
30873;BME280;17579;42.690;2.586;2022-12-07T03:24:23;96899.00;;;12.50;51.76
30873;BME280;17579;42.690;2.586;2022-12-07T03:26:56;96901.47;;;12.43;51.75
30873;BME280;17579;42.690;2.586;2022-12-07T03:29:29;96906.13;;;12.41;51.80
30873;BME280;17579;42.690;2.586;2022-12-07T03:34:52;96894.84;;;12.39;52.09
30873;BME280;17579;42.690;2.586;2022-12-07T03:37:30;96898.00;;;12.35;51.95
30873;BME280;17579;42.690;2.586;2022-12-07T03:42:45;96883.75;;;12.36;52.29
30873;BME280;17579;42.690;2.586;2022-12-07T03:45:12;96886.88;;;12.31;52.44
30873;BME280;17579;42.690;2.586;2022-12-07T03:47:52;96885.56;;;12.27;52.29
30873;BME280;17579;42.690;2.586;2022-12-07T03:50:29;96881.41;;;12.24;52.57
30873;BME280;17579;42.690;2.586;2022-12-07T03:53:11;96883.06;;;12.25;52.54
30873;BME280;17579;42.690;2.586;2022-12-07T03:55:42;96884.56;;;12.28;52.65
30873;BME280;17579;42.690;2.586;2022-12-07T03:58:11;96885.56;;;12.27;52.57
30873;BME280;17579;42.690;2.586;2022-12-07T04:00:38;96885.41;;;12.28;52.95
30873;BME280;17579;42.690;2.586;2022-12-07T04:03:03;96889.84;;;12.28;52.80
30873;BME280;17579;42.690;2.586;2022-12-07T04:05:29;96888.88;;;12.29;52.67
30873;BME280;17579;42.690;2.586;2022-12-07T04:07:55;96882.91;;;12.27;52.87
30873;BME280;17579;42.690;2.586;2022-12-07T04:10:20;96884.72;;;12.26;52.89
30873;BME280;17579;42.690;2.586;2022-12-07T04:12:46;96884.72;;;12.26;53.01
30873;BME280;17579;42.690;2.586;2022-12-07T04:15:12;96884.72;;;12.26;53.15
30873;BME280;17579;42.690;2.586;2022-12-07T04:17:38;96882.91;;;12.27;52.92
30873;BME280;17579;42.690;2.586;2022-12-07T04:20:05;96873.47;;;12.24;53.21
30873;BME280;17579;42.690;2.586;2022-12-07T04:22:32;96883.06;;;12.25;53.24
30873;BME280;17579;42.690;2.586;2022-12-07T04:24:57;96887.53;;;12.25;53.00
30873;BME280;17579;42.690;2.586;2022-12-07T04:27:23;96883.06;;;12.25;53.17
30873;BME280;17579;42.690;2.586;2022-12-07T04:29:48;96880.56;;;12.24;52.90
30873;BME280;17579;42.690;2.586;2022-12-07T04:32:14;96885.06;;;12.23;53.02
30873;BME280;17579;42.690;2.586;2022-12-07T04:34:39;96878.41;;;12.19;53.12
30873;BME280;17579;42.690;2.586;2022-12-07T04:37:05;96871.31;;;12.20;53.08
30873;BME280;17579;42.690;2.586;2022-12-07T04:39:33;96870.47;;;12.19;53.55
30873;BME280;17579;42.690;2.586;2022-12-07T04:41:59;96875.25;;;12.24;54.26
30873;BME280;17579;42.690;2.586;2022-12-07T04:44:26;96875.44;;;12.30;54.46
30873;BME280;17579;42.690;2.586;2022-12-07T04:46:53;96874.59;;;12.38;54.68
30873;BME280;17579;42.690;2.586;2022-12-07T04:49:19;96879.09;;;12.46;54.89
30873;BME280;17579;42.690;2.586;2022-12-07T04:51:45;96881.91;;;12.53;54.96
30873;BME280;17579;42.690;2.586;2022-12-07T04:54:12;96881.41;;;12.57;54.90
30873;BME280;17579;42.690;2.586;2022-12-07T04:56:38;96877.09;;;12.64;54.91
30873;BME280;17579;42.690;2.586;2022-12-07T04:59:04;96874.13;;;12.68;54.96
30873;BME280;17579;42.690;2.586;2022-12-07T05:01:30;96878.91;;;12.72;55.07
30873;BME280;17579;42.690;2.586;2022-12-07T05:03:56;96875.75;;;12.77;54.87
30873;BME280;17579;42.690;2.586;2022-12-07T05:06:22;96882.53;;;12.79;54.77
30873;BME280;17579;42.690;2.586;2022-12-07T05:08:48;96881.38;;;12.82;54.80
30873;BME280;17579;42.690;2.586;2022-12-07T05:11:14;96881.22;;;12.83;54.66
30873;BME280;17579;42.690;2.586;2022-12-07T05:14:01;96883.53;;;12.87;54.66
30873;BME280;17579;42.690;2.586;2022-12-07T05:16:27;96882.72;;;12.86;54.64
30873;BME280;17579;42.690;2.586;2022-12-07T05:18:53;96878.22;;;12.87;54.82
30873;BME280;17579;42.690;2.586;2022-12-07T05:21:19;96875.56;;;12.87;54.81
30873;BME280;17579;42.690;2.586;2022-12-07T05:23:44;96886.34;;;12.85;54.89
30873;BME280;17579;42.690;2.586;2022-12-07T05:26:10;96890.84;;;12.85;54.85
30873;BME280;17579;42.690;2.586;2022-12-07T05:28:36;96888.19;;;12.85;54.78
30873;BME280;17579;42.690;2.586;2022-12-07T05:31:01;96893.66;;;12.83;54.68
30873;BME280;17579;42.690;2.586;2022-12-07T05:33:27;96889.19;;;12.83;54.64
30873;BME280;17579;42.690;2.586;2022-12-07T05:35:52;96896.16;;;12.85;54.75
30873;BME280;17579;42.690;2.586;2022-12-07T05:38:18;96892.47;;;12.86;54.68
30873;BME280;17579;42.690;2.586;2022-12-07T05:40:43;96890.50;;;12.88;54.62
30873;BME280;17579;42.690;2.586;2022-12-07T05:43:09;96894.16;;;12.87;54.28
30873;BME280;17579;42.690;2.586;2022-12-07T05:45:35;96889.53;;;12.80;53.55
30873;BME280;17579;42.690;2.586;2022-12-07T05:48:00;96888.19;;;12.76;53.99
30873;BME280;17579;42.690;2.586;2022-12-07T05:50:26;96881.22;;;12.75;54.02
30873;BME280;17579;42.690;2.586;2022-12-07T05:52:53;96884.91;;;12.74;54.00
30873;BME280;17579;42.690;2.586;2022-12-07T05:55:18;96892.00;;;12.74;54.04
30873;BME280;17579;42.690;2.586;2022-12-07T05:57:44;96880.75;;;12.72;54.09
30873;BME280;17579;42.690;2.586;2022-12-07T06:00:29;96885.19;;;12.71;54.39
30873;BME280;17579;42.690;2.586;2022-12-07T06:02:55;96890.50;;;12.71;54.22
30873;BME280;17579;42.690;2.586;2022-12-07T06:05:20;96890.19;;;12.74;54.73
30873;BME280;17579;42.690;2.586;2022-12-07T06:07:46;96890.03;;;12.76;54.68
30873;BME280;17579;42.690;2.586;2022-12-07T06:10:11;96897.16;;;12.75;54.43
30873;BME280;17579;42.690;2.586;2022-12-07T06:12:37;96890.19;;;12.74;54.42
30873;BME280;17579;42.690;2.586;2022-12-07T06:15:05;96897.31;;;12.74;54.67
30873;BME280;17579;42.690;2.586;2022-12-07T06:17:31;96900.66;;;12.76;54.86
30873;BME280;17579;42.690;2.586;2022-12-07T06:19:57;96901.63;;;12.75;54.56
30873;BME280;17579;42.690;2.586;2022-12-07T06:22:22;96899.97;;;12.74;54.87
30873;BME280;17579;42.690;2.586;2022-12-07T06:24:48;96903.47;;;12.74;54.83
30873;BME280;17579;42.690;2.586;2022-12-07T06:27:13;96908.09;;;12.72;54.71
30873;BME280;17579;42.690;2.586;2022-12-07T06:29:39;96903.59;;;12.73;55.29
30873;BME280;17579;42.690;2.586;2022-12-07T06:32:05;96902.13;;;12.70;55.02
30873;BME280;17579;42.690;2.586;2022-12-07T06:34:31;96890.84;;;12.68;55.02
30873;BME280;17579;42.690;2.586;2022-12-07T06:36:56;96890.69;;;12.70;55.15
30873;BME280;17579;42.690;2.586;2022-12-07T06:39:25;96895.16;;;12.69;55.22
30873;BME280;17579;42.690;2.586;2022-12-07T06:41:51;96899.50;;;12.70;55.28
30873;BME280;17579;42.690;2.586;2022-12-07T06:44:20;96896.84;;;12.70;55.00
30873;BME280;17579;42.690;2.586;2022-12-07T06:46:46;96904.78;;;12.70;55.33
30873;BME280;17579;42.690;2.586;2022-12-07T06:49:12;96901.28;;;12.70;55.22
30873;BME280;17579;42.690;2.586;2022-12-07T06:51:38;96899.66;;;12.69;55.41
30873;BME280;17579;42.690;2.586;2022-12-07T06:54:07;96898.63;;;12.70;55.43
30873;BME280;17579;42.690;2.586;2022-12-07T06:56:33;96902.13;;;12.70;55.20
30873;BME280;17579;42.690;2.586;2022-12-07T06:58:59;96898.47;;;12.71;55.22
30873;BME280;17579;42.690;2.586;2022-12-07T07:01:24;96895.81;;;12.71;55.44
30873;BME280;17579;42.690;2.586;2022-12-07T07:03:50;96898.47;;;12.71;55.52
30873;BME280;17579;42.690;2.586;2022-12-07T07:06:15;96901.63;;;12.75;55.38
30873;BME280;17579;42.690;2.586;2022-12-07T07:08:41;96894.50;;;12.75;55.37
30873;BME280;17579;42.690;2.586;2022-12-07T07:11:09;96893.69;;;12.75;55.35
30873;BME280;17579;42.690;2.586;2022-12-07T07:13:35;96895.34;;;12.76;55.52
30873;BME280;17579;42.690;2.586;2022-12-07T07:16:01;96902.28;;;12.77;55.44
30873;BME280;17579;42.690;2.586;2022-12-07T07:18:26;96901.13;;;12.79;55.12
30873;BME280;17579;42.690;2.586;2022-12-07T07:20:52;96897.47;;;12.80;55.33
30873;BME280;17579;42.690;2.586;2022-12-07T07:23:18;96910.59;;;12.82;55.15
30873;BME280;17579;42.690;2.586;2022-12-07T07:25:44;96902.44;;;12.83;55.31
30873;BME280;17579;42.690;2.586;2022-12-07T07:28:10;96906.59;;;12.86;55.15
30873;BME280;17579;42.690;2.586;2022-12-07T07:30:36;96909.91;;;12.88;54.98
30873;BME280;17579;42.690;2.586;2022-12-07T07:33:02;96915.03;;;12.90;54.88
30873;BME280;17579;42.690;2.586;2022-12-07T07:35:30;96908.75;;;12.91;54.75
30873;BME280;17579;42.690;2.586;2022-12-07T07:37:56;96911.22;;;12.92;54.98
30873;BME280;17579;42.690;2.586;2022-12-07T07:40:22;96910.25;;;12.93;55.02
30873;BME280;17579;42.690;2.586;2022-12-07T07:42:50;96913.72;;;12.94;54.87
30873;BME280;17579;42.690;2.586;2022-12-07T07:45:17;96919.03;;;12.94;55.16
30873;BME280;17579;42.690;2.586;2022-12-07T07:47:43;96920.00;;;12.93;54.75
30873;BME280;17579;42.690;2.586;2022-12-07T07:50:09;96920.19;;;12.91;55.03
30873;BME280;17579;42.690;2.586;2022-12-07T07:52:35;96923.16;;;12.88;54.84
30873;BME280;17579;42.690;2.586;2022-12-07T07:55:00;96924.16;;;12.87;54.83
30873;BME280;17579;42.690;2.586;2022-12-07T07:57:26;96917.38;;;12.85;54.95
30873;BME280;17579;42.690;2.586;2022-12-07T07:59:52;96927.66;;;12.79;53.77
30873;BME280;17579;42.690;2.586;2022-12-07T08:02:19;96924.34;;;12.77;53.84
30873;BME280;17579;42.690;2.586;2022-12-07T08:04:46;96929.66;;;12.77;54.05
30873;BME280;17579;42.690;2.586;2022-12-07T08:07:12;96923.50;;;12.77;53.29
30873;BME280;17579;42.690;2.586;2022-12-07T08:09:38;96923.50;;;12.77;53.56
30873;BME280;17579;42.690;2.586;2022-12-07T08:12:04;96922.03;;;12.74;53.86
30873;BME280;17579;42.690;2.586;2022-12-07T08:14:29;96922.03;;;12.74;54.17
30873;BME280;17579;42.690;2.586;2022-12-07T08:16:55;96932.78;;;12.73;53.81
30873;BME280;17579;42.690;2.586;2022-12-07T08:19:20;96928.50;;;12.72;53.69
30873;BME280;17579;42.690;2.586;2022-12-07T08:21:46;96931.81;;;12.74;53.85
30873;BME280;17579;42.690;2.586;2022-12-07T08:24:12;96937.13;;;12.74;53.31
30873;BME280;17579;42.690;2.586;2022-12-07T08:26:37;96936.78;;;12.77;53.27
30873;BME280;17579;42.690;2.586;2022-12-07T08:29:03;96932.16;;;12.79;53.31
30873;BME280;17579;42.690;2.586;2022-12-07T08:31:28;96937.13;;;12.82;53.17
30873;BME280;17579;42.690;2.586;2022-12-07T08:33:55;96939.94;;;12.80;53.13
30873;BME280;17579;42.690;2.586;2022-12-07T08:36:21;96943.94;;;12.76;52.62
30873;BME280;17579;42.690;2.586;2022-12-07T08:38:48;96944.44;;;12.72;52.64
30873;BME280;17579;42.690;2.586;2022-12-07T08:41:14;96937.63;;;12.69;52.80
30873;BME280;17579;42.690;2.586;2022-12-07T08:43:40;96935.31;;;12.66;52.71
30873;BME280;17579;42.690;2.586;2022-12-07T08:46:31;96933.31;;;12.60;52.75
30873;BME280;17579;42.690;2.586;2022-12-07T08:49:05;96934.94;;;12.53;53.02
30873;BME280;17579;42.690;2.586;2022-12-07T08:51:31;96938.28;;;12.55;53.25
30873;BME280;17579;42.690;2.586;2022-12-07T08:53:58;96939.13;;;12.47;53.01
30873;BME280;17579;42.690;2.586;2022-12-07T08:56:26;96939.44;;;12.44;53.21
30873;BME280;17579;42.690;2.586;2022-12-07T08:58:52;96948.22;;;12.44;53.36
30873;BME280;17579;42.690;2.586;2022-12-07T09:01:17;96941.59;;;12.48;53.57
30873;BME280;17579;42.690;2.586;2022-12-07T09:03:43;96940.59;;;12.50;53.38
30873;BME280;17579;42.690;2.586;2022-12-07T09:06:09;96943.94;;;12.52;53.54
30873;BME280;17579;42.690;2.586;2022-12-07T09:08:40;96936.59;;;12.45;53.28
30873;BME280;17579;42.690;2.586;2022-12-07T09:11:07;96929.84;;;12.43;53.75
30873;BME280;17579;42.690;2.586;2022-12-07T09:13:33;96935.94;;;12.43;53.94
30873;BME280;17579;42.690;2.586;2022-12-07T09:15:58;96934.63;;;12.47;53.91
30873;BME280;17579;42.690;2.586;2022-12-07T09:18:24;96937.78;;;12.51;53.99
30873;BME280;17579;42.690;2.586;2022-12-07T09:20:51;96940.78;;;12.56;54.16
30873;BME280;17579;42.690;2.586;2022-12-07T09:23:17;96936.47;;;12.63;54.34
30873;BME280;17579;42.690;2.586;2022-12-07T09:25:43;96936.97;;;12.67;54.19
30873;BME280;17579;42.690;2.586;2022-12-07T09:28:08;96933.13;;;12.70;54.16
30873;BME280;17579;42.690;2.586;2022-12-07T09:30:34;96936.31;;;12.73;54.12
30873;BME280;17579;42.690;2.586;2022-12-07T09:33:00;96945.75;;;12.76;54.52
30873;BME280;17579;42.690;2.586;2022-12-07T09:35:26;96930.31;;;12.79;54.39
30873;BME280;17579;42.690;2.586;2022-12-07T09:37:51;96931.66;;;12.83;54.24
30873;BME280;17579;42.690;2.586;2022-12-07T09:40:20;96930.50;;;12.86;54.08
30873;BME280;17579;42.690;2.586;2022-12-07T09:42:49;96935.78;;;12.94;54.31
30873;BME280;17579;42.690;2.586;2022-12-07T09:45:25;96938.59;;;13.01;54.48
30873;BME280;17579;42.690;2.586;2022-12-07T09:47:52;96933.28;;;13.09;54.02
30873;BME280;17579;42.690;2.586;2022-12-07T09:50:22;96932.94;;;13.12;54.32
30873;BME280;17579;42.690;2.586;2022-12-07T09:52:49;96925.94;;;13.20;54.14
30873;BME280;17579;42.690;2.586;2022-12-07T09:55:25;96919.47;;;13.22;53.99
30873;BME280;17579;42.690;2.586;2022-12-07T09:57:52;96925.75;;;13.29;54.08
30873;BME280;17579;42.690;2.586;2022-12-07T10:00:20;96930.72;;;13.32;54.24
30873;BME280;17579;42.690;2.586;2022-12-07T10:03:02;96924.59;;;13.32;54.00
30873;BME280;17579;42.690;2.586;2022-12-07T10:05:30;96926.59;;;13.38;54.09
30873;BME280;17579;42.690;2.586;2022-12-07T10:07:59;96922.78;;;13.41;53.72
30873;BME280;17579;42.690;2.586;2022-12-07T10:10:27;96926.41;;;13.40;53.65
30873;BME280;17579;42.690;2.586;2022-12-07T10:13:01;96921.09;;;13.40;53.58
30873;BME280;17579;42.690;2.586;2022-12-07T10:15:40;96915.97;;;13.38;53.78
30873;BME280;17579;42.690;2.586;2022-12-07T10:18:18;96909.50;;;13.41;53.97
30873;BME280;17579;42.690;2.586;2022-12-07T10:20:47;96907.13;;;13.46;53.63
30873;BME280;17579;42.690;2.586;2022-12-07T10:23:17;96907.13;;;13.46;53.83
30873;BME280;17579;42.690;2.586;2022-12-07T10:25:44;96901.31;;;13.50;53.80
30873;BME280;17579;42.690;2.586;2022-12-07T10:28:15;96904.28;;;13.56;54.05
30873;BME280;17579;42.690;2.586;2022-12-07T10:30:57;96889.97;;;13.65;53.65
30873;BME280;17579;42.690;2.586;2022-12-07T10:33:37;96882.72;;;13.82;53.95
30873;BME280;17579;42.690;2.586;2022-12-07T10:36:16;96881.97;;;13.96;53.77
30873;BME280;17579;42.690;2.586;2022-12-07T10:38:52;96881.75;;;14.06;53.47
30873;BME280;17579;42.690;2.586;2022-12-07T10:41:18;96877.81;;;14.25;53.61
30873;BME280;17579;42.690;2.586;2022-12-07T10:43:51;96877.09;;;14.31;53.12
30873;BME280;17579;42.690;2.586;2022-12-07T10:46:41;96878.03;;;14.38;53.16
30873;BME280;17579;42.690;2.586;2022-12-07T10:49:36;96876.31;;;14.46;52.66
30873;BME280;17579;42.690;2.586;2022-12-07T10:52:37;96877.69;;;14.56;52.79
30873;BME280;17579;42.690;2.586;2022-12-07T11:01:11;96857.47;;;15.09;51.67
30873;BME280;17579;42.690;2.586;2022-12-07T11:03:52;96857.91;;;15.42;51.30
30873;BME280;17579;42.690;2.586;2022-12-07T11:12:04;96837.72;;;16.06;50.05
30873;BME280;17579;42.690;2.586;2022-12-07T11:17:42;96826.72;;;16.37;50.09
30873;BME280;17579;42.690;2.586;2022-12-07T11:35:33;96803.94;;;16.91;48.59
30873;BME280;17579;42.690;2.586;2022-12-07T11:38:10;96799.91;;;17.09;48.16
30873;BME280;17579;42.690;2.586;2022-12-07T11:40:38;96800.63;;;17.24;47.20
30873;BME280;17579;42.690;2.586;2022-12-07T11:43:32;96790.59;;;17.33;47.47
30873;BME280;17579;42.690;2.586;2022-12-07T11:46:04;96782.84;;;17.52;46.70
30873;BME280;17579;42.690;2.586;2022-12-07T11:48:41;96778.31;;;17.52;46.79
30873;BME280;17579;42.690;2.586;2022-12-07T11:51:11;96782.84;;;17.58;46.01
30873;BME280;17579;42.690;2.586;2022-12-07T11:53:51;96777.31;;;17.60;47.11
30873;BME280;17579;42.690;2.586;2022-12-07T11:56:23;96777.13;;;17.68;46.31
30873;BME280;17579;42.690;2.586;2022-12-07T11:58:57;96780.84;;;17.74;46.24
30873;BME280;17579;42.690;2.586;2022-12-07T12:07:26;96763.97;;;17.80;45.03
30873;BME280;17579;42.690;2.586;2022-12-07T12:10:05;96761.06;;;17.61;46.15
30873;BME280;17579;42.690;2.586;2022-12-07T12:13:02;96759.19;;;17.55;46.22
30873;BME280;17579;42.690;2.586;2022-12-07T12:15:59;96762.50;;;17.64;46.09
30873;BME280;17579;42.690;2.586;2022-12-07T12:18:45;96753.47;;;17.72;46.02
30873;BME280;17579;42.690;2.586;2022-12-07T12:21:20;96754.09;;;17.80;45.74
30873;BME280;17579;42.690;2.586;2022-12-07T12:23:58;96751.88;;;17.91;45.90
30873;BME280;17579;42.690;2.586;2022-12-07T12:26:27;96743.44;;;18.07;45.07
30873;BME280;17579;42.690;2.586;2022-12-07T12:29:06;96740.78;;;18.14;45.34
30873;BME280;17579;42.690;2.586;2022-12-07T12:31:47;96736.06;;;18.29;44.65
30873;BME280;17579;42.690;2.586;2022-12-07T12:37:45;96734.19;;;18.30;45.09
30873;BME280;17579;42.690;2.586;2022-12-07T12:46:36;96723.00;;;17.59;44.72
30873;BME280;17579;42.690;2.586;2022-12-07T12:55:11;96728.94;;;17.41;45.58
30873;BME280;17579;42.690;2.586;2022-12-07T12:57:37;96716.44;;;17.62;45.48
30873;BME280;17579;42.690;2.586;2022-12-07T13:00:17;96714.38;;;17.71;45.54
30873;BME280;17579;42.690;2.586;2022-12-07T13:02:54;96710.94;;;17.90;45.33
30873;BME280;17579;42.690;2.586;2022-12-07T13:05:23;96709.69;;;17.93;44.71
30873;BME280;17579;42.690;2.586;2022-12-07T13:10:40;96703.91;;;17.76;44.86
30873;BME280;17579;42.690;2.586;2022-12-07T13:13:30;96699.53;;;17.55;45.41
30873;BME280;17579;42.690;2.586;2022-12-07T13:18:53;96698.47;;;17.36;44.86
30873;BME280;17579;42.690;2.586;2022-12-07T13:21:40;96694.94;;;17.22;44.89
30873;BME280;17579;42.690;2.586;2022-12-07T13:24:07;96705.16;;;17.05;45.73
30873;BME280;17579;42.690;2.586;2022-12-07T13:26:41;96699.34;;;16.94;45.94
30873;BME280;17579;42.690;2.586;2022-12-07T13:29:25;96707.09;;;16.83;46.27
30873;BME280;17579;42.690;2.586;2022-12-07T13:31:58;96698.03;;;16.77;45.87
30873;BME280;17579;42.690;2.586;2022-12-07T13:34:32;96706.38;;;16.67;46.25
30873;BME280;17579;42.690;2.586;2022-12-07T13:37:04;96705.72;;;16.58;46.45
30873;BME280;17579;42.690;2.586;2022-12-07T13:39:35;96701.59;;;16.56;46.31
30873;BME280;17579;42.690;2.586;2022-12-07T13:42:26;96690.88;;;16.49;46.68
30873;BME280;17579;42.690;2.586;2022-12-07T13:44:52;96691.31;;;16.53;46.45
30873;BME280;17579;42.690;2.586;2022-12-07T13:47:43;96685.06;;;16.39;46.88
30873;BME280;17579;42.690;2.586;2022-12-07T13:50:32;96685.47;;;16.36;47.02
30873;BME280;17579;42.690;2.586;2022-12-07T13:53:00;96684.44;;;16.37;46.56
30873;BME280;17579;42.690;2.586;2022-12-07T13:55:27;96683.19;;;16.33;46.95
30873;BME280;17579;42.690;2.586;2022-12-07T13:57:54;96684.78;;;16.27;47.17
30873;BME280;17579;42.690;2.586;2022-12-07T14:00:25;96682.13;;;16.27;47.14
30873;BME280;17579;42.690;2.586;2022-12-07T14:05:37;96673.72;;;16.30;47.11
30873;BME280;17579;42.690;2.586;2022-12-07T14:08:20;96677.19;;;16.24;47.25
30873;BME280;17579;42.690;2.586;2022-12-07T14:11:04;96675.66;;;16.15;47.22
30873;BME280;17579;42.690;2.586;2022-12-07T14:13:51;96681.78;;;16.08;47.10
30873;BME280;17579;42.690;2.586;2022-12-07T14:16:40;96681.72;;;16.02;47.23
30873;BME280;17579;42.690;2.586;2022-12-07T14:22:07;96673.91;;;16.00;47.06
30873;BME280;17579;42.690;2.586;2022-12-07T14:24:42;96681.03;;;15.93;47.31
30873;BME280;17579;42.690;2.586;2022-12-07T14:27:20;96679.63;;;15.90;47.50
30873;BME280;17579;42.690;2.586;2022-12-07T14:29:47;96681.25;;;15.91;47.29
30873;BME280;17579;42.690;2.586;2022-12-07T14:32:34;96672.34;;;15.84;47.61
30873;BME280;17579;42.690;2.586;2022-12-07T14:35:10;96682.47;;;15.89;47.43
30873;BME280;17579;42.690;2.586;2022-12-07T14:37:37;96688.81;;;15.88;47.38